American Integrity — WDD2875 — position and weather

sailwx.info

Track history (hours):
 
Tides and Currents Weather Stations Pressure Air Temp Water Temp Dewpoint Dewpoint Depression Visibility Wind Speed Wind Dir Waves Ship Positions

American Integrity

Owner: American Steamship Company, Williamsville, NY. More information available from US FCC via Universal Licensing System and Coast Guard Vessel Documentation Center.

Last reported at 2015-Jul-28 07:33 UTC. Time now 2015-Jul-28 08:23 UTC.
Position N 46°29' W 084°35'.

; draft 8 m.

Type: Cargo ship. MMSI: 367120990.

Date/timePositionNaut miles runAvg speedWind from/ knotsBaromVisibWave heightAir tempDewpointWater temp
2015-Jul-28 07:33N 46°29' W 084°35'1111.4
2015-Jul-28 06:33N 46°38' W 084°47'1212.0
2015-Jul-28 05:33N 46°48' W 084°56'1211.9
2015-Jul-28 04:33N 46°53' W 085°12'17211.8
2015-Jul-27 14:00N 47°30' W 089°18'4011.6 250 / 121012.510.8 0.516.1
2015-Jul-27 10:31N 47°20' W 090°16'2411.9
2015-Jul-27 08:30N 47°16' W 090°51'1212.1
2015-Jul-27 07:32N 47°10' W 091°05'1212.0
2015-Jul-27 06:33N 47°04' W 091°20'1212.1
2015-Jul-27 05:33N 46°58' W 091°35'1312.0
2015-Jul-27 04:30N 46°52' W 091°51'1111.2
2015-Jul-27 03:33N 46°47' W 092°05'3 2.5
2015-Jul-27 02:32N 46°45' W 092°07'0 0.0
2015-Jul-27 01:34N 46°45' W 092°07'0 0.0
2015-Jul-27 00:33N 46°45' W 092°07'0 0.0
2015-Jul-26 23:33N 46°45' W 092°07'0 0.0
2015-Jul-26 22:33N 46°45' W 092°07'0 0.0
2015-Jul-26 21:33N 46°45' W 092°07'0 0.0
2015-Jul-26 20:34N 46°45' W 092°07'0 0.0
2015-Jul-26 19:33N 46°45' W 092°07'0 0.0
2015-Jul-26 18:32N 46°45' W 092°07'0 0.0
2015-Jul-26 17:33N 46°45' W 092°07'0 0.0
2015-Jul-26 16:33N 46°45' W 092°07'1 1.2
2015-Jul-26 15:33N 46°46' W 092°06'0 0.0
2015-Jul-26 14:33N 46°46' W 092°06'5 5.5
2015-Jul-26 13:33N 46°49' W 091°59'1312.6
2015-Jul-26 12:33N 46°53' W 091°42'814.8
2015-Jul-26 12:00N 46°54' W 091°30'512.2 280 / 61012.510.8 20.5
2015-Jul-26 11:33N 46°58' W 091°25'1312.6
2015-Jul-26 10:33N 47°03' W 091°08'1312.7
2015-Jul-26 09:33N 47°08' W 090°50'1312.5
2015-Jul-26 08:33N 47°11' W 090°33'20912.1
2015-Jul-25 15:19N 46°55' W 085°27'3110.8
2015-Jul-25 12:28N 46°39' W 084°49'1312.1
2015-Jul-25 11:23N 46°30' W 084°36'26 5.4
2015-Jul-25 06:32N 46°13' W 084°07'1110.8
2015-Jul-25 05:33N 46°04' W 083°59'9 8.8
2015-Jul-25 04:33N 45°55' W 083°57'1312.9
2015-Jul-25 03:33N 45°51' W 084°15'1313.2
2015-Jul-25 02:33N 45°51' W 084°33'1312.8
2015-Jul-25 01:33N 45°49' W 084°52'1211.7
2015-Jul-25 00:33N 45°48' W 085°09'1212.0
2015-Jul-24 23:33N 45°38' W 085°18'1313.1
2015-Jul-24 22:33N 45°27' W 085°29'1313.2
2015-Jul-24 21:33N 45°16' W 085°40'1313.2
2015-Jul-24 20:33N 45°06' W 085°51'1312.8
2015-Jul-24 19:33N 44°57' W 086°05'1313.2
2015-Jul-24 18:33N 44°51' W 086°21'1413.2
2015-Jul-24 17:30N 44°45' W 086°38'1412.8
2015-Jul-24 16:25N 44°34' W 086°51'101 2.3
2015-Jul-22 20:00N 42°54' W 087°12'8012.4 170 / 101014.010.8 23.3
2015-Jul-22 13:32N 44°11' W 086°42'2511.7
2015-Jul-22 11:26N 44°35' W 086°33'1011.7
2015-Jul-22 10:33N 44°45' W 086°29'1211.8
2015-Jul-22 09:33N 44°56' W 086°24'1212.4
2015-Jul-22 08:33N 45°08' W 086°20'1212.4
2015-Jul-22 07:33N 45°20' W 086°15'1212.4
2015-Jul-22 06:33N 45°32' W 086°10'1111.5
2015-Jul-22 05:33N 45°42' W 086°02'1211.9
2015-Jul-22 04:33N 45°49' W 085°48'1111.5
2015-Jul-22 03:33N 45°54' W 085°33'1111.4
2015-Jul-22 02:33N 45°53' W 085°17'1111.5
2015-Jul-22 01:33N 45°51' W 085°01'1111.4
2015-Jul-22 00:33N 45°49' W 084°44'10 9.5
2015-Jul-21 23:33N 45°52' W 084°31'1111.5
2015-Jul-21 22:33N 45°53' W 084°15'1111.3
2015-Jul-21 21:33N 45°55' W 083°59'10 7.0
2015-Jul-21 20:07N 46°05' W 084°01'316 9.7
2015-Jul-20 11:29N 47°02' W 091°33'5 5.2
2015-Jul-20 10:33N 47°01' W 091°40'0 0.0
2015-Jul-20 09:33N 47°01' W 091°40'0 0.0
2015-Jul-20 08:32N 47°01' W 091°40'0 0.0
2015-Jul-20 07:33N 47°01' W 091°40'0 0.0
2015-Jul-20 06:33N 47°01' W 091°40'0 0.0
2015-Jul-20 05:26N 47°01' W 091°40'0 0.0
2015-Jul-20 04:32N 47°01' W 091°40'0 0.0
2015-Jul-20 03:30N 47°01' W 091°40'0 0.0
2015-Jul-20 02:33N 47°01' W 091°40'0 0.0
2015-Jul-20 01:33N 47°01' W 091°40'0 0.0
2015-Jul-20 00:33N 47°01' W 091°40'0 0.0
2015-Jul-19 23:32N 47°01' W 091°40'0 0.0
2015-Jul-19 22:33N 47°01' W 091°40'0 0.0
2015-Jul-19 21:32N 47°01' W 091°40'0 0.0
2015-Jul-19 20:33N 47°01' W 091°40'0 0.0
2015-Jul-19 19:32N 47°01' W 091°40'0 0.0
2015-Jul-19 18:33N 47°01' W 091°40'0 0.0
2015-Jul-19 17:33N 47°01' W 091°40'0 0.0
2015-Jul-19 16:33N 47°01' W 091°40'0 0.0
2015-Jul-19 15:29N 47°01' W 091°40'0 0.0
2015-Jul-19 14:19N 47°01' W 091°40'0 0.0
2015-Jul-19 13:31N 47°01' W 091°40'0 0.0
2015-Jul-19 12:33N 47°01' W 091°40'0 0.0
2015-Jul-19 11:33N 47°01' W 091°40'0 0.0
2015-Jul-19 10:33N 47°01' W 091°40'2 2.4
2015-Jul-19 09:33N 46°59' W 091°40'1212.1
2015-Jul-19 08:33N 47°03' W 091°23'23112.1
2015-Jul-18 13:29N 46°60' W 085°44'1212.9
2015-Jul-18 12:33N 46°56' W 085°28'1312.7
2015-Jul-18 11:33N 46°51' W 085°10'1212.3
2015-Jul-18 10:33N 46°46' W 084°54'1313.0
2015-Jul-18 09:33N 46°35' W 084°44'1211.8
2015-Jul-18 08:33N 46°27' W 084°31'  
Track history (hours):
 
Tides and Currents Weather Stations Pressure Air Temp Water Temp Dewpoint Dewpoint Depression Visibility Wind Speed Wind Dir Waves Ship Positions

American Integrity

Owner: American Steamship Company, Williamsville, NY. More information available from US FCC via Universal Licensing System and Coast Guard Vessel Documentation Center.

Last reported at 2015-Jul-28 07:33 UTC. Time now 2015-Jul-28 08:23 UTC.
Position N 46°29' W 084°35'.

; draft 8 m.

Type: Cargo ship. MMSI: 367120990.

Date/timePositionNaut miles runAvg speedWind from/ knotsBaromVisibWave heightAir tempDewpointWater temp
2015-Jul-28 07:33N 46°29' W 084°35'1111.4
2015-Jul-28 06:33N 46°38' W 084°47'1212.0
2015-Jul-28 05:33N 46°48' W 084°56'1211.9
2015-Jul-28 04:33N 46°53' W 085°12'17211.8
2015-Jul-27 14:00N 47°30' W 089°18'4011.6 250 / 121012.510.8 0.516.1
2015-Jul-27 10:31N 47°20' W 090°16'2411.9
2015-Jul-27 08:30N 47°16' W 090°51'1212.1
2015-Jul-27 07:32N 47°10' W 091°05'1212.0
2015-Jul-27 06:33N 47°04' W 091°20'1212.1
2015-Jul-27 05:33N 46°58' W 091°35'1312.0
2015-Jul-27 04:30N 46°52' W 091°51'1111.2
2015-Jul-27 03:33N 46°47' W 092°05'3 2.5
2015-Jul-27 02:32N 46°45' W 092°07'0 0.0
2015-Jul-27 01:34N 46°45' W 092°07'0 0.0
2015-Jul-27 00:33N 46°45' W 092°07'0 0.0
2015-Jul-26 23:33N 46°45' W 092°07'0 0.0
2015-Jul-26 22:33N 46°45' W 092°07'0 0.0
2015-Jul-26 21:33N 46°45' W 092°07'0 0.0
2015-Jul-26 20:34N 46°45' W 092°07'0 0.0
2015-Jul-26 19:33N 46°45' W 092°07'0 0.0
2015-Jul-26 18:32N 46°45' W 092°07'0 0.0
2015-Jul-26 17:33N 46°45' W 092°07'0 0.0
2015-Jul-26 16:33N 46°45' W 092°07'1 1.2
2015-Jul-26 15:33N 46°46' W 092°06'0 0.0
2015-Jul-26 14:33N 46°46' W 092°06'5 5.5
2015-Jul-26 13:33N 46°49' W 091°59'1312.6
2015-Jul-26 12:33N 46°53' W 091°42'814.8
2015-Jul-26 12:00N 46°54' W 091°30'512.2 280 / 61012.510.8 20.5
2015-Jul-26 11:33N 46°58' W 091°25'1312.6
2015-Jul-26 10:33N 47°03' W 091°08'1312.7
2015-Jul-26 09:33N 47°08' W 090°50'1312.5
2015-Jul-26 08:33N 47°11' W 090°33'20912.1
2015-Jul-25 15:19N 46°55' W 085°27'3110.8
2015-Jul-25 12:28N 46°39' W 084°49'1312.1
2015-Jul-25 11:23N 46°30' W 084°36'26 5.4
2015-Jul-25 06:32N 46°13' W 084°07'1110.8
2015-Jul-25 05:33N 46°04' W 083°59'9 8.8
2015-Jul-25 04:33N 45°55' W 083°57'1312.9
2015-Jul-25 03:33N 45°51' W 084°15'1313.2
2015-Jul-25 02:33N 45°51' W 084°33'1312.8
2015-Jul-25 01:33N 45°49' W 084°52'1211.7
2015-Jul-25 00:33N 45°48' W 085°09'1212.0
2015-Jul-24 23:33N 45°38' W 085°18'1313.1
2015-Jul-24 22:33N 45°27' W 085°29'1313.2
2015-Jul-24 21:33N 45°16' W 085°40'1313.2
2015-Jul-24 20:33N 45°06' W 085°51'1312.8
2015-Jul-24 19:33N 44°57' W 086°05'1313.2
2015-Jul-24 18:33N 44°51' W 086°21'1413.2
2015-Jul-24 17:30N 44°45' W 086°38'1412.8
2015-Jul-24 16:25N 44°34' W 086°51'101 2.3
2015-Jul-22 20:00N 42°54' W 087°12'8012.4 170 / 101014.010.8 23.3
2015-Jul-22 13:32N 44°11' W 086°42'2511.7
2015-Jul-22 11:26N 44°35' W 086°33'1011.7
2015-Jul-22 10:33N 44°45' W 086°29'1211.8
2015-Jul-22 09:33N 44°56' W 086°24'1212.4
2015-Jul-22 08:33N 45°08' W 086°20'1212.4
2015-Jul-22 07:33N 45°20' W 086°15'1212.4
2015-Jul-22 06:33N 45°32' W 086°10'1111.5
2015-Jul-22 05:33N 45°42' W 086°02'1211.9
2015-Jul-22 04:33N 45°49' W 085°48'1111.5
2015-Jul-22 03:33N 45°54' W 085°33'1111.4
2015-Jul-22 02:33N 45°53' W 085°17'1111.5
2015-Jul-22 01:33N 45°51' W 085°01'1111.4
2015-Jul-22 00:33N 45°49' W 084°44'10 9.5
2015-Jul-21 23:33N 45°52' W 084°31'1111.5
2015-Jul-21 22:33N 45°53' W 084°15'1111.3
2015-Jul-21 21:33N 45°55' W 083°59'10 7.0
2015-Jul-21 20:07N 46°05' W 084°01'316 9.7
2015-Jul-20 11:29N 47°02' W 091°33'5 5.2
2015-Jul-20 10:33N 47°01' W 091°40'0 0.0
2015-Jul-20 09:33N 47°01' W 091°40'0 0.0
2015-Jul-20 08:32N 47°01' W 091°40'0 0.0
2015-Jul-20 07:33N 47°01' W 091°40'0 0.0
2015-Jul-20 06:33N 47°01' W 091°40'0 0.0
2015-Jul-20 05:26N 47°01' W 091°40'0 0.0
2015-Jul-20 04:32N 47°01' W 091°40'0 0.0
2015-Jul-20 03:30N 47°01' W 091°40'0 0.0
2015-Jul-20 02:33N 47°01' W 091°40'0 0.0
2015-Jul-20 01:33N 47°01' W 091°40'0 0.0
2015-Jul-20 00:33N 47°01' W 091°40'0 0.0
2015-Jul-19 23:32N 47°01' W 091°40'0 0.0
2015-Jul-19 22:33N 47°01' W 091°40'0 0.0
2015-Jul-19 21:32N 47°01' W 091°40'0 0.0
2015-Jul-19 20:33N 47°01' W 091°40'0 0.0
2015-Jul-19 19:32N 47°01' W 091°40'0 0.0
2015-Jul-19 18:33N 47°01' W 091°40'0 0.0
2015-Jul-19 17:33N 47°01' W 091°40'0 0.0
2015-Jul-19 16:33N 47°01' W 091°40'0 0.0
2015-Jul-19 15:29N 47°01' W 091°40'0 0.0
2015-Jul-19 14:19N 47°01' W 091°40'0 0.0
2015-Jul-19 13:31N 47°01' W 091°40'0 0.0
2015-Jul-19 12:33N 47°01' W 091°40'0 0.0
2015-Jul-19 11:33N 47°01' W 091°40'0 0.0
2015-Jul-19 10:33N 47°01' W 091°40'2 2.4
2015-Jul-19 09:33N 46°59' W 091°40'1212.1
2015-Jul-19 08:33N 47°03' W 091°23'23112.1
2015-Jul-18 13:29N 46°60' W 085°44'1212.9
2015-Jul-18 12:33N 46°56' W 085°28'1312.7
2015-Jul-18 11:33N 46°51' W 085°10'1212.3
2015-Jul-18 10:33N 46°46' W 084°54'1313.0
2015-Jul-18 09:33N 46°35' W 084°44'1211.8
2015-Jul-18 08:33N 46°27' W 084°31'  

Dump ship's entire track history